sensor_id;sensor_type;location;lat;lon;timestamp;P1;durP1;ratioP1;P2;durP2;ratioP2
50681;SDS011;36779;52.168;20.878;2022-08-03T00:00:31;11.70;;;10.10;;
50681;SDS011;36779;52.168;20.878;2022-08-03T00:03:20;11.80;;;10.70;;
50681;SDS011;36779;52.168;20.878;2022-08-03T00:06:10;12.30;;;11.10;;
50681;SDS011;36779;52.168;20.878;2022-08-03T00:09:01;13.30;;;11.70;;
50681;SDS011;36779;52.168;20.878;2022-08-03T00:11:46;11.70;;;10.70;;
50681;SDS011;36779;52.168;20.878;2022-08-03T00:14:38;12.90;;;10.40;;
50681;SDS011;36779;52.168;20.878;2022-08-03T00:17:27;13.10;;;11.20;;
50681;SDS011;36779;52.168;20.878;2022-08-03T00:20:38;12.80;;;11.40;;
50681;SDS011;36779;52.168;20.878;2022-08-03T00:23:28;13.50;;;12.00;;
50681;SDS011;36779;52.168;20.878;2022-08-03T00:26:39;12.40;;;11.10;;
50681;SDS011;36779;52.168;20.878;2022-08-03T00:29:29;12.10;;;11.00;;
50681;SDS011;36779;52.168;20.878;2022-08-03T00:32:47;11.10;;;10.00;;
50681;SDS011;36779;52.168;20.878;2022-08-03T00:35:27;11.60;;;10.50;;
50681;SDS011;36779;52.168;20.878;2022-08-03T00:38:39;13.50;;;12.10;;
50681;SDS011;36779;52.168;20.878;2022-08-03T00:41:28;11.90;;;10.80;;
50681;SDS011;36779;52.168;20.878;2022-08-03T00:44:18;11.40;;;10.30;;
50681;SDS011;36779;52.168;20.878;2022-08-03T00:47:07;12.10;;;10.00;;
50681;SDS011;36779;52.168;20.878;2022-08-03T00:49:57;11.90;;;10.70;;
50681;SDS011;36779;52.168;20.878;2022-08-03T00:52:49;12.30;;;11.00;;
50681;SDS011;36779;52.168;20.878;2022-08-03T00:55:41;15.10;;;12.30;;
50681;SDS011;36779;52.168;20.878;2022-08-03T00:58:36;12.80;;;11.60;;
50681;SDS011;36779;52.168;20.878;2022-08-03T01:01:25;11.60;;;9.90;;
50681;SDS011;36779;52.168;20.878;2022-08-03T01:04:19;12.60;;;10.10;;
50681;SDS011;36779;52.168;20.878;2022-08-03T01:07:13;10.80;;;9.60;;
50681;SDS011;36779;52.168;20.878;2022-08-03T01:10:18;12.60;;;11.20;;
50681;SDS011;36779;52.168;20.878;2022-08-03T01:13:16;12.10;;;11.00;;
50681;SDS011;36779;52.168;20.878;2022-08-03T01:16:34;11.70;;;10.70;;
50681;SDS011;36779;52.168;20.878;2022-08-03T01:19:35;12.10;;;11.10;;
50681;SDS011;36779;52.168;20.878;2022-08-03T01:22:39;12.00;;;10.90;;
50681;SDS011;36779;52.168;20.878;2022-08-03T01:25:42;11.20;;;10.20;;
50681;SDS011;36779;52.168;20.878;2022-08-03T01:28:51;13.00;;;11.70;;
50681;SDS011;36779;52.168;20.878;2022-08-03T01:31:50;12.00;;;10.80;;
50681;SDS011;36779;52.168;20.878;2022-08-03T01:35:07;12.30;;;10.90;;
50681;SDS011;36779;52.168;20.878;2022-08-03T01:38:08;12.50;;;11.30;;
50681;SDS011;36779;52.168;20.878;2022-08-03T01:41:01;12.80;;;11.70;;
50681;SDS011;36779;52.168;20.878;2022-08-03T01:43:57;14.80;;;13.30;;
50681;SDS011;36779;52.168;20.878;2022-08-03T01:47:13;14.20;;;13.00;;
50681;SDS011;36779;52.168;20.878;2022-08-03T01:50:06;13.70;;;12.40;;
50681;SDS011;36779;52.168;20.878;2022-08-03T01:53:07;13.60;;;12.20;;
50681;SDS011;36779;52.168;20.878;2022-08-03T01:55:58;13.20;;;11.90;;
50681;SDS011;36779;52.168;20.878;2022-08-03T01:58:54;13.50;;;12.30;;
50681;SDS011;36779;52.168;20.878;2022-08-03T02:01:47;13.10;;;11.90;;
50681;SDS011;36779;52.168;20.878;2022-08-03T02:04:57;13.90;;;12.50;;
50681;SDS011;36779;52.168;20.878;2022-08-03T02:07:48;14.20;;;13.00;;
50681;SDS011;36779;52.168;20.878;2022-08-03T02:10:39;14.80;;;13.30;;
50681;SDS011;36779;52.168;20.878;2022-08-03T02:13:30;13.20;;;12.00;;
50681;SDS011;36779;52.168;20.878;2022-08-03T02:16:22;13.00;;;11.90;;
50681;SDS011;36779;52.168;20.878;2022-08-03T02:19:12;12.10;;;11.00;;
50681;SDS011;36779;52.168;20.878;2022-08-03T02:22:06;15.00;;;12.00;;
50681;SDS011;36779;52.168;20.878;2022-08-03T02:24:57;13.80;;;12.60;;
50681;SDS011;36779;52.168;20.878;2022-08-03T02:27:50;14.20;;;12.90;;
50681;SDS011;36779;52.168;20.878;2022-08-03T02:30:42;13.20;;;12.10;;
50681;SDS011;36779;52.168;20.878;2022-08-03T02:33:35;11.70;;;10.70;;
50681;SDS011;36779;52.168;20.878;2022-08-03T02:36:28;11.70;;;10.60;;
50681;SDS011;36779;52.168;20.878;2022-08-03T02:39:21;12.30;;;11.20;;
50681;SDS011;36779;52.168;20.878;2022-08-03T02:42:14;13.30;;;12.10;;
50681;SDS011;36779;52.168;20.878;2022-08-03T02:45:11;13.50;;;12.00;;
50681;SDS011;36779;52.168;20.878;2022-08-03T02:48:04;13.20;;;11.90;;
50681;SDS011;36779;52.168;20.878;2022-08-03T02:50:59;11.90;;;10.70;;
50681;SDS011;36779;52.168;20.878;2022-08-03T02:53:51;12.20;;;11.00;;
50681;SDS011;36779;52.168;20.878;2022-08-03T02:56:43;11.90;;;10.80;;
50681;SDS011;36779;52.168;20.878;2022-08-03T02:59:33;11.80;;;10.80;;
50681;SDS011;36779;52.168;20.878;2022-08-03T03:02:24;12.40;;;11.30;;
50681;SDS011;36779;52.168;20.878;2022-08-03T03:05:17;14.10;;;12.70;;
50681;SDS011;36779;52.168;20.878;2022-08-03T03:08:30;12.70;;;10.80;;
50681;SDS011;36779;52.168;20.878;2022-08-03T03:11:21;12.30;;;11.20;;
50681;SDS011;36779;52.168;20.878;2022-08-03T03:14:14;15.50;;;10.80;;
50681;SDS011;36779;52.168;20.878;2022-08-03T03:17:21;12.40;;;11.20;;
50681;SDS011;36779;52.168;20.878;2022-08-03T03:20:13;13.90;;;12.60;;
50681;SDS011;36779;52.168;20.878;2022-08-03T03:23:17;13.40;;;12.20;;
50681;SDS011;36779;52.168;20.878;2022-08-03T03:26:08;14.40;;;13.20;;
50681;SDS011;36779;52.168;20.878;2022-08-03T03:29:02;14.20;;;12.70;;
50681;SDS011;36779;52.168;20.878;2022-08-03T03:31:51;14.70;;;11.90;;
50681;SDS011;36779;52.168;20.878;2022-08-03T03:34:41;13.80;;;12.60;;
50681;SDS011;36779;52.168;20.878;2022-08-03T03:37:31;14.20;;;12.90;;
50681;SDS011;36779;52.168;20.878;2022-08-03T03:40:20;14.60;;;12.70;;
50681;SDS011;36779;52.168;20.878;2022-08-03T03:43:10;14.30;;;13.00;;
50681;SDS011;36779;52.168;20.878;2022-08-03T03:46:00;14.30;;;13.00;;
50681;SDS011;36779;52.168;20.878;2022-08-03T03:48:49;13.00;;;11.80;;
50681;SDS011;36779;52.168;20.878;2022-08-03T03:51:39;12.10;;;11.10;;
50681;SDS011;36779;52.168;20.878;2022-08-03T03:54:38;13.00;;;11.90;;
50681;SDS011;36779;52.168;20.878;2022-08-03T03:57:28;14.00;;;12.80;;
50681;SDS011;36779;52.168;20.878;2022-08-03T04:00:17;14.40;;;12.80;;
50681;SDS011;36779;52.168;20.878;2022-08-03T04:03:09;14.00;;;12.70;;
50681;SDS011;36779;52.168;20.878;2022-08-03T04:05:58;13.40;;;12.20;;
50681;SDS011;36779;52.168;20.878;2022-08-03T04:09:08;13.90;;;12.60;;
50681;SDS011;36779;52.168;20.878;2022-08-03T04:12:17;14.10;;;12.90;;
50681;SDS011;36779;52.168;20.878;2022-08-03T04:15:09;15.50;;;13.90;;
50681;SDS011;36779;52.168;20.878;2022-08-03T04:18:01;13.40;;;12.10;;
50681;SDS011;36779;52.168;20.878;2022-08-03T04:20:55;15.60;;;12.50;;
50681;SDS011;36779;52.168;20.878;2022-08-03T04:23:48;13.20;;;11.70;;
50681;SDS011;36779;52.168;20.878;2022-08-03T04:26:42;13.90;;;12.50;;
50681;SDS011;36779;52.168;20.878;2022-08-03T04:29:40;14.20;;;12.80;;
50681;SDS011;36779;52.168;20.878;2022-08-03T04:32:36;14.60;;;13.30;;
50681;SDS011;36779;52.168;20.878;2022-08-03T04:35:33;15.30;;;13.70;;
50681;SDS011;36779;52.168;20.878;2022-08-03T04:38:47;14.10;;;12.40;;
50681;SDS011;36779;52.168;20.878;2022-08-03T04:44:51;13.20;;;11.90;;
50681;SDS011;36779;52.168;20.878;2022-08-03T04:47:48;15.50;;;13.00;;
50681;SDS011;36779;52.168;20.878;2022-08-03T04:50:38;14.30;;;12.30;;
50681;SDS011;36779;52.168;20.878;2022-08-03T04:53:28;14.60;;;13.30;;
50681;SDS011;36779;52.168;20.878;2022-08-03T04:56:18;14.70;;;13.20;;
50681;SDS011;36779;52.168;20.878;2022-08-03T04:59:07;12.70;;;11.50;;
50681;SDS011;36779;52.168;20.878;2022-08-03T05:01:59;13.20;;;11.70;;
50681;SDS011;36779;52.168;20.878;2022-08-03T05:04:51;13.90;;;12.60;;
50681;SDS011;36779;52.168;20.878;2022-08-03T05:07:40;13.70;;;12.30;;
50681;SDS011;36779;52.168;20.878;2022-08-03T05:10:29;15.60;;;14.10;;
50681;SDS011;36779;52.168;20.878;2022-08-03T05:13:18;16.00;;;14.30;;
50681;SDS011;36779;52.168;20.878;2022-08-03T05:16:07;13.80;;;12.40;;
50681;SDS011;36779;52.168;20.878;2022-08-03T05:18:56;13.90;;;12.60;;
50681;SDS011;36779;52.168;20.878;2022-08-03T05:21:45;14.20;;;12.90;;
50681;SDS011;36779;52.168;20.878;2022-08-03T05:24:39;15.50;;;13.90;;
50681;SDS011;36779;52.168;20.878;2022-08-03T05:27:28;14.80;;;13.30;;
50681;SDS011;36779;52.168;20.878;2022-08-03T05:30:17;15.20;;;13.70;;
50681;SDS011;36779;52.168;20.878;2022-08-03T05:33:21;15.50;;;14.10;;
50681;SDS011;36779;52.168;20.878;2022-08-03T05:36:11;15.50;;;13.80;;
50681;SDS011;36779;52.168;20.878;2022-08-03T05:39:02;15.90;;;14.00;;
50681;SDS011;36779;52.168;20.878;2022-08-03T05:41:41;16.10;;;14.00;;
50681;SDS011;36779;52.168;20.878;2022-08-03T05:44:30;17.60;;;13.70;;
50681;SDS011;36779;52.168;20.878;2022-08-03T05:47:20;15.90;;;13.60;;
50681;SDS011;36779;52.168;20.878;2022-08-03T05:50:09;15.30;;;13.30;;
50681;SDS011;36779;52.168;20.878;2022-08-03T05:53:05;14.60;;;13.10;;
50681;SDS011;36779;52.168;20.878;2022-08-03T05:55:54;16.00;;;12.40;;
50681;SDS011;36779;52.168;20.878;2022-08-03T05:59:00;15.00;;;12.70;;
50681;SDS011;36779;52.168;20.878;2022-08-03T06:02:15;15.40;;;13.90;;
50681;SDS011;36779;52.168;20.878;2022-08-03T06:05:06;16.70;;;15.10;;
50681;SDS011;36779;52.168;20.878;2022-08-03T06:07:56;14.90;;;13.40;;
50681;SDS011;36779;52.168;20.878;2022-08-03T06:10:46;16.20;;;14.00;;
50681;SDS011;36779;52.168;20.878;2022-08-03T06:13:35;14.80;;;13.00;;
50681;SDS011;36779;52.168;20.878;2022-08-03T06:16:23;18.90;;;15.00;;
50681;SDS011;36779;52.168;20.878;2022-08-03T06:19:12;21.60;;;16.90;;
50681;SDS011;36779;52.168;20.878;2022-08-03T06:22:02;22.50;;;18.60;;
50681;SDS011;36779;52.168;20.878;2022-08-03T06:24:51;22.70;;;18.70;;
50681;SDS011;36779;52.168;20.878;2022-08-03T06:27:34;19.30;;;16.90;;
50681;SDS011;36779;52.168;20.878;2022-08-03T06:30:29;21.20;;;16.70;;
50681;SDS011;36779;52.168;20.878;2022-08-03T06:33:18;20.30;;;15.90;;
50681;SDS011;36779;52.168;20.878;2022-08-03T06:36:07;18.40;;;15.80;;
50681;SDS011;36779;52.168;20.878;2022-08-03T06:38:58;18.00;;;16.10;;
50681;SDS011;36779;52.168;20.878;2022-08-03T06:41:51;21.40;;;17.00;;
50681;SDS011;36779;52.168;20.878;2022-08-03T06:44:39;21.70;;;17.00;;
50681;SDS011;36779;52.168;20.878;2022-08-03T06:47:35;19.50;;;16.90;;
50681;SDS011;36779;52.168;20.878;2022-08-03T06:50:58;19.20;;;16.90;;
50681;SDS011;36779;52.168;20.878;2022-08-03T06:53:47;19.10;;;16.80;;
50681;SDS011;36779;52.168;20.878;2022-08-03T06:56:37;21.70;;;16.90;;
50681;SDS011;36779;52.168;20.878;2022-08-03T06:59:26;20.80;;;16.40;;
50681;SDS011;36779;52.168;20.878;2022-08-03T07:02:38;26.20;;;17.10;;
50681;SDS011;36779;52.168;20.878;2022-08-03T07:05:27;22.60;;;15.40;;
50681;SDS011;36779;52.168;20.878;2022-08-03T07:08:19;20.30;;;14.20;;
50681;SDS011;36779;52.168;20.878;2022-08-03T07:11:21;22.20;;;15.30;;
50681;SDS011;36779;52.168;20.878;2022-08-03T07:14:11;17.80;;;14.70;;
50681;SDS011;36779;52.168;20.878;2022-08-03T07:17:01;20.70;;;14.10;;
50681;SDS011;36779;52.168;20.878;2022-08-03T07:19:53;20.50;;;14.20;;
50681;SDS011;36779;52.168;20.878;2022-08-03T07:22:44;18.00;;;12.70;;
50681;SDS011;36779;52.168;20.878;2022-08-03T07:25:32;16.20;;;12.50;;
50681;SDS011;36779;52.168;20.878;2022-08-03T07:28:23;16.20;;;12.90;;
50681;SDS011;36779;52.168;20.878;2022-08-03T07:31:11;14.30;;;12.60;;
50681;SDS011;36779;52.168;20.878;2022-08-03T07:34:01;16.20;;;12.60;;
50681;SDS011;36779;52.168;20.878;2022-08-03T07:36:50;17.10;;;10.90;;
50681;SDS011;36779;52.168;20.878;2022-08-03T07:39:39;17.30;;;11.50;;
50681;SDS011;36779;52.168;20.878;2022-08-03T07:42:28;14.40;;;10.20;;
50681;SDS011;36779;52.168;20.878;2022-08-03T07:45:21;13.80;;;9.70;;
50681;SDS011;36779;52.168;20.878;2022-08-03T07:48:02;24.20;;;10.70;;
50681;SDS011;36779;52.168;20.878;2022-08-03T07:50:58;14.40;;;10.00;;
50681;SDS011;36779;52.168;20.878;2022-08-03T07:53:48;15.00;;;10.30;;
50681;SDS011;36779;52.168;20.878;2022-08-03T07:56:39;14.90;;;9.90;;
50681;SDS011;36779;52.168;20.878;2022-08-03T07:59:28;9.60;;;8.60;;
50681;SDS011;36779;52.168;20.878;2022-08-03T08:02:42;10.50;;;8.30;;
50681;SDS011;36779;52.168;20.878;2022-08-03T08:05:31;11.50;;;7.60;;
50681;SDS011;36779;52.168;20.878;2022-08-03T08:08:20;9.10;;;6.30;;
50681;SDS011;36779;52.168;20.878;2022-08-03T08:11:09;7.90;;;5.70;;
50681;SDS011;36779;52.168;20.878;2022-08-03T08:13:58;7.30;;;5.30;;
50681;SDS011;36779;52.168;20.878;2022-08-03T08:16:49;10.00;;;7.00;;
50681;SDS011;36779;52.168;20.878;2022-08-03T08:19:38;7.00;;;4.90;;
50681;SDS011;36779;52.168;20.878;2022-08-03T08:22:41;7.70;;;4.90;;
50681;SDS011;36779;52.168;20.878;2022-08-03T08:25:32;7.10;;;4.50;;
50681;SDS011;36779;52.168;20.878;2022-08-03T08:28:21;7.00;;;4.40;;
50681;SDS011;36779;52.168;20.878;2022-08-03T08:31:20;4.30;;;3.90;;
50681;SDS011;36779;52.168;20.878;2022-08-03T08:34:08;5.90;;;4.20;;
50681;SDS011;36779;52.168;20.878;2022-08-03T08:36:56;7.20;;;4.30;;
50681;SDS011;36779;52.168;20.878;2022-08-03T08:39:45;5.70;;;4.20;;
50681;SDS011;36779;52.168;20.878;2022-08-03T08:42:36;5.10;;;4.60;;
50681;SDS011;36779;52.168;20.878;2022-08-03T08:45:31;6.00;;;5.20;;
50681;SDS011;36779;52.168;20.878;2022-08-03T08:48:22;5.20;;;4.60;;
50681;SDS011;36779;52.168;20.878;2022-08-03T08:51:13;6.10;;;4.90;;
50681;SDS011;36779;52.168;20.878;2022-08-03T08:54:06;8.30;;;6.10;;
50681;SDS011;36779;52.168;20.878;2022-08-03T08:56:55;8.50;;;6.20;;
50681;SDS011;36779;52.168;20.878;2022-08-03T09:00:11;9.00;;;6.10;;
50681;SDS011;36779;52.168;20.878;2022-08-03T09:03:03;18.10;;;5.90;;
50681;SDS011;36779;52.168;20.878;2022-08-03T09:05:52;7.40;;;4.30;;
50681;SDS011;36779;52.168;20.878;2022-08-03T09:08:43;4.90;;;3.60;;
50681;SDS011;36779;52.168;20.878;2022-08-03T09:11:33;5.00;;;3.60;;
50681;SDS011;36779;52.168;20.878;2022-08-03T09:14:42;3.80;;;3.40;;
50681;SDS011;36779;52.168;20.878;2022-08-03T09:20:32;4.10;;;3.70;;
50681;SDS011;36779;52.168;20.878;2022-08-03T09:23:21;4.60;;;3.10;;
50681;SDS011;36779;52.168;20.878;2022-08-03T09:29:19;4.80;;;3.90;;
50681;SDS011;36779;52.168;20.878;2022-08-03T09:32:09;4.80;;;3.70;;
50681;SDS011;36779;52.168;20.878;2022-08-03T09:35:02;11.40;;;3.90;;
50681;SDS011;36779;52.168;20.878;2022-08-03T09:38:09;3.80;;;3.20;;
50681;SDS011;36779;52.168;20.878;2022-08-03T09:41:02;6.00;;;3.30;;
50681;SDS011;36779;52.168;20.878;2022-08-03T09:44:05;4.10;;;3.30;;
50681;SDS011;36779;52.168;20.878;2022-08-03T09:46:48;5.40;;;3.70;;
50681;SDS011;36779;52.168;20.878;2022-08-03T09:49:40;3.10;;;2.80;;
50681;SDS011;36779;52.168;20.878;2022-08-03T09:52:42;5.00;;;3.10;;
50681;SDS011;36779;52.168;20.878;2022-08-03T09:55:39;4.50;;;3.10;;
50681;SDS011;36779;52.168;20.878;2022-08-03T09:58:58;3.20;;;2.80;;
50681;SDS011;36779;52.168;20.878;2022-08-03T10:01:47;3.00;;;2.80;;
50681;SDS011;36779;52.168;20.878;2022-08-03T10:04:46;3.50;;;3.20;;
50681;SDS011;36779;52.168;20.878;2022-08-03T10:07:43;3.20;;;2.90;;
50681;SDS011;36779;52.168;20.878;2022-08-03T10:10:40;4.40;;;3.20;;
50681;SDS011;36779;52.168;20.878;2022-08-03T10:13:30;3.50;;;3.20;;
50681;SDS011;36779;52.168;20.878;2022-08-03T10:16:19;3.60;;;3.00;;
50681;SDS011;36779;52.168;20.878;2022-08-03T10:19:12;3.30;;;3.00;;
50681;SDS011;36779;52.168;20.878;2022-08-03T10:22:05;3.50;;;3.10;;
50681;SDS011;36779;52.168;20.878;2022-08-03T10:24:58;3.30;;;3.00;;
50681;SDS011;36779;52.168;20.878;2022-08-03T10:27:50;5.00;;;2.90;;
50681;SDS011;36779;52.168;20.878;2022-08-03T10:30:42;4.90;;;2.80;;
50681;SDS011;36779;52.168;20.878;2022-08-03T10:33:40;3.70;;;3.10;;
50681;SDS011;36779;52.168;20.878;2022-08-03T10:36:39;3.10;;;2.70;;
50681;SDS011;36779;52.168;20.878;2022-08-03T10:39:34;2.80;;;2.60;;
50681;SDS011;36779;52.168;20.878;2022-08-03T10:42:23;3.70;;;2.90;;
50681;SDS011;36779;52.168;20.878;2022-08-03T10:45:17;3.50;;;2.80;;
50681;SDS011;36779;52.168;20.878;2022-08-03T10:48:07;4.70;;;2.90;;
50681;SDS011;36779;52.168;20.878;2022-08-03T10:50:57;3.40;;;2.70;;
50681;SDS011;36779;52.168;20.878;2022-08-03T10:53:46;4.90;;;2.60;;
50681;SDS011;36779;52.168;20.878;2022-08-03T10:56:42;3.80;;;3.50;;
50681;SDS011;36779;52.168;20.878;2022-08-03T11:00:02;3.60;;;3.30;;
50681;SDS011;36779;52.168;20.878;2022-08-03T11:03:01;4.70;;;3.20;;
50681;SDS011;36779;52.168;20.878;2022-08-03T11:06:13;3.80;;;3.40;;
50681;SDS011;36779;52.168;20.878;2022-08-03T11:09:14;3.20;;;2.90;;
50681;SDS011;36779;52.168;20.878;2022-08-03T11:11:59;4.60;;;2.90;;
50681;SDS011;36779;52.168;20.878;2022-08-03T11:18:18;4.00;;;2.50;;
50681;SDS011;36779;52.168;20.878;2022-08-03T11:21:13;3.10;;;2.90;;
50681;SDS011;36779;52.168;20.878;2022-08-03T11:24:05;3.50;;;3.20;;
50681;SDS011;36779;52.168;20.878;2022-08-03T11:26:42;4.60;;;3.10;;
50681;SDS011;36779;52.168;20.878;2022-08-03T11:30:08;3.50;;;2.80;;
50681;SDS011;36779;52.168;20.878;2022-08-03T11:33:19;4.10;;;3.00;;
50681;SDS011;36779;52.168;20.878;2022-08-03T11:36:17;3.00;;;2.80;;
50681;SDS011;36779;52.168;20.878;2022-08-03T11:39:19;3.10;;;2.80;;
50681;SDS011;36779;52.168;20.878;2022-08-03T11:45:34;5.90;;;3.20;;
50681;SDS011;36779;52.168;20.878;2022-08-03T11:48:25;5.10;;;3.00;;
50681;SDS011;36779;52.168;20.878;2022-08-03T11:51:19;3.50;;;3.20;;
50681;SDS011;36779;52.168;20.878;2022-08-03T11:54:09;3.30;;;3.00;;
50681;SDS011;36779;52.168;20.878;2022-08-03T11:56:58;5.60;;;3.10;;
50681;SDS011;36779;52.168;20.878;2022-08-03T11:59:47;4.00;;;3.10;;
50681;SDS011;36779;52.168;20.878;2022-08-03T12:02:39;3.90;;;3.20;;
50681;SDS011;36779;52.168;20.878;2022-08-03T12:05:44;4.20;;;3.20;;
50681;SDS011;36779;52.168;20.878;2022-08-03T12:08:40;3.60;;;3.30;;
50681;SDS011;36779;52.168;20.878;2022-08-03T12:11:30;4.70;;;3.00;;
50681;SDS011;36779;52.168;20.878;2022-08-03T12:14:19;3.50;;;2.80;;
50681;SDS011;36779;52.168;20.878;2022-08-03T12:17:32;3.60;;;3.30;;
50681;SDS011;36779;52.168;20.878;2022-08-03T12:20:22;3.50;;;3.00;;
50681;SDS011;36779;52.168;20.878;2022-08-03T12:23:12;5.00;;;3.10;;
50681;SDS011;36779;52.168;20.878;2022-08-03T12:26:02;3.50;;;3.20;;
50681;SDS011;36779;52.168;20.878;2022-08-03T12:28:55;3.90;;;3.30;;
50681;SDS011;36779;52.168;20.878;2022-08-03T12:31:44;3.90;;;3.10;;
50681;SDS011;36779;52.168;20.878;2022-08-03T12:34:44;3.80;;;3.30;;
50681;SDS011;36779;52.168;20.878;2022-08-03T12:37:34;3.90;;;3.10;;
50681;SDS011;36779;52.168;20.878;2022-08-03T12:40:24;3.60;;;3.30;;
50681;SDS011;36779;52.168;20.878;2022-08-03T12:43:15;4.00;;;3.20;;
50681;SDS011;36779;52.168;20.878;2022-08-03T12:46:08;3.30;;;2.80;;
50681;SDS011;36779;52.168;20.878;2022-08-03T12:49:00;3.70;;;2.90;;
50681;SDS011;36779;52.168;20.878;2022-08-03T12:51:55;3.30;;;3.00;;
50681;SDS011;36779;52.168;20.878;2022-08-03T12:54:53;3.70;;;3.30;;
50681;SDS011;36779;52.168;20.878;2022-08-03T12:57:43;3.20;;;2.90;;
50681;SDS011;36779;52.168;20.878;2022-08-03T13:00:32;3.80;;;3.40;;
50681;SDS011;36779;52.168;20.878;2022-08-03T13:03:22;3.70;;;3.40;;
50681;SDS011;36779;52.168;20.878;2022-08-03T13:06:30;3.10;;;2.90;;
50681;SDS011;36779;52.168;20.878;2022-08-03T13:09:18;3.90;;;3.40;;
50681;SDS011;36779;52.168;20.878;2022-08-03T13:12:10;3.50;;;3.20;;
50681;SDS011;36779;52.168;20.878;2022-08-03T13:14:59;3.60;;;3.20;;
50681;SDS011;36779;52.168;20.878;2022-08-03T13:17:49;4.70;;;3.20;;
50681;SDS011;36779;52.168;20.878;2022-08-03T13:20:37;4.20;;;3.50;;
50681;SDS011;36779;52.168;20.878;2022-08-03T13:23:27;3.60;;;3.00;;
50681;SDS011;36779;52.168;20.878;2022-08-03T13:26:18;4.00;;;3.20;;
50681;SDS011;36779;52.168;20.878;2022-08-03T13:29:10;3.70;;;3.40;;
50681;SDS011;36779;52.168;20.878;2022-08-03T13:31:59;3.60;;;3.40;;
50681;SDS011;36779;52.168;20.878;2022-08-03T13:34:48;4.00;;;3.30;;
50681;SDS011;36779;52.168;20.878;2022-08-03T13:37:40;3.70;;;3.40;;
50681;SDS011;36779;52.168;20.878;2022-08-03T13:40:34;3.70;;;3.40;;
50681;SDS011;36779;52.168;20.878;2022-08-03T13:43:28;4.20;;;3.60;;
50681;SDS011;36779;52.168;20.878;2022-08-03T13:46:18;4.60;;;3.80;;
50681;SDS011;36779;52.168;20.878;2022-08-03T13:49:07;4.70;;;3.60;;
50681;SDS011;36779;52.168;20.878;2022-08-03T13:51:56;5.00;;;3.40;;
50681;SDS011;36779;52.168;20.878;2022-08-03T13:54:45;5.50;;;3.70;;
50681;SDS011;36779;52.168;20.878;2022-08-03T13:57:35;3.80;;;3.40;;
50681;SDS011;36779;52.168;20.878;2022-08-03T14:00:45;3.50;;;3.20;;
50681;SDS011;36779;52.168;20.878;2022-08-03T14:03:35;4.40;;;3.60;;
50681;SDS011;36779;52.168;20.878;2022-08-03T14:06:24;5.40;;;3.90;;
50681;SDS011;36779;52.168;20.878;2022-08-03T14:09:13;4.00;;;3.60;;
50681;SDS011;36779;52.168;20.878;2022-08-03T14:12:02;5.50;;;3.70;;
50681;SDS011;36779;52.168;20.878;2022-08-03T14:14:55;4.80;;;3.40;;
50681;SDS011;36779;52.168;20.878;2022-08-03T14:17:48;4.70;;;3.30;;
50681;SDS011;36779;52.168;20.878;2022-08-03T14:20:37;3.90;;;3.60;;
50681;SDS011;36779;52.168;20.878;2022-08-03T14:23:41;4.40;;;3.90;;
50681;SDS011;36779;52.168;20.878;2022-08-03T14:26:31;4.60;;;3.40;;
50681;SDS011;36779;52.168;20.878;2022-08-03T14:29:20;4.00;;;3.60;;
50681;SDS011;36779;52.168;20.878;2022-08-03T14:32:09;4.00;;;3.60;;
50681;SDS011;36779;52.168;20.878;2022-08-03T14:35:00;3.40;;;3.20;;
50681;SDS011;36779;52.168;20.878;2022-08-03T14:37:49;4.00;;;3.30;;
50681;SDS011;36779;52.168;20.878;2022-08-03T14:40:39;3.70;;;3.40;;
50681;SDS011;36779;52.168;20.878;2022-08-03T14:43:28;3.90;;;3.60;;
50681;SDS011;36779;52.168;20.878;2022-08-03T14:46:21;5.20;;;3.50;;
50681;SDS011;36779;52.168;20.878;2022-08-03T14:49:10;3.80;;;3.40;;
50681;SDS011;36779;52.168;20.878;2022-08-03T14:52:19;6.10;;;3.80;;
50681;SDS011;36779;52.168;20.878;2022-08-03T14:55:08;4.60;;;3.30;;
50681;SDS011;36779;52.168;20.878;2022-08-03T14:57:57;5.40;;;3.70;;
50681;SDS011;36779;52.168;20.878;2022-08-03T15:00:49;5.10;;;3.70;;
50681;SDS011;36779;52.168;20.878;2022-08-03T15:03:41;4.60;;;3.50;;
50681;SDS011;36779;52.168;20.878;2022-08-03T15:06:31;4.50;;;4.10;;
50681;SDS011;36779;52.168;20.878;2022-08-03T15:09:19;5.90;;;3.60;;
50681;SDS011;36779;52.168;20.878;2022-08-03T15:12:11;4.50;;;3.90;;
50681;SDS011;36779;52.168;20.878;2022-08-03T15:14:59;5.70;;;3.60;;
50681;SDS011;36779;52.168;20.878;2022-08-03T15:17:48;4.60;;;4.00;;
50681;SDS011;36779;52.168;20.878;2022-08-03T15:20:48;4.00;;;3.50;;
50681;SDS011;36779;52.168;20.878;2022-08-03T15:23:37;4.90;;;4.40;;
50681;SDS011;36779;52.168;20.878;2022-08-03T15:26:25;4.00;;;3.70;;
50681;SDS011;36779;52.168;20.878;2022-08-03T15:29:23;4.50;;;4.10;;
50681;SDS011;36779;52.168;20.878;2022-08-03T15:32:32;4.90;;;4.10;;
50681;SDS011;36779;52.168;20.878;2022-08-03T15:35:22;4.40;;;4.00;;
50681;SDS011;36779;52.168;20.878;2022-08-03T15:38:11;4.70;;;4.20;;
50681;SDS011;36779;52.168;20.878;2022-08-03T15:41:00;8.70;;;4.00;;
50681;SDS011;36779;52.168;20.878;2022-08-03T15:43:49;4.70;;;4.20;;
50681;SDS011;36779;52.168;20.878;2022-08-03T15:46:39;4.80;;;4.00;;
50681;SDS011;36779;52.168;20.878;2022-08-03T15:49:27;4.20;;;3.90;;
50681;SDS011;36779;52.168;20.878;2022-08-03T15:52:17;5.20;;;4.20;;
50681;SDS011;36779;52.168;20.878;2022-08-03T15:55:07;4.70;;;4.30;;
50681;SDS011;36779;52.168;20.878;2022-08-03T15:58:02;4.70;;;4.00;;
50681;SDS011;36779;52.168;20.878;2022-08-03T16:01:13;6.10;;;4.50;;
50681;SDS011;36779;52.168;20.878;2022-08-03T16:04:06;5.20;;;4.10;;
50681;SDS011;36779;52.168;20.878;2022-08-03T16:06:55;4.80;;;4.20;;
50681;SDS011;36779;52.168;20.878;2022-08-03T16:09:45;4.80;;;4.40;;
50681;SDS011;36779;52.168;20.878;2022-08-03T16:12:33;4.40;;;4.10;;
50681;SDS011;36779;52.168;20.878;2022-08-03T16:15:23;4.40;;;4.00;;
50681;SDS011;36779;52.168;20.878;2022-08-03T16:18:12;6.60;;;4.30;;
50681;SDS011;36779;52.168;20.878;2022-08-03T16:21:01;5.20;;;4.70;;
50681;SDS011;36779;52.168;20.878;2022-08-03T16:23:56;5.30;;;4.30;;
50681;SDS011;36779;52.168;20.878;2022-08-03T16:26:49;4.40;;;4.00;;
50681;SDS011;36779;52.168;20.878;2022-08-03T16:29:37;6.20;;;4.40;;
50681;SDS011;36779;52.168;20.878;2022-08-03T16:32:27;5.40;;;4.20;;
50681;SDS011;36779;52.168;20.878;2022-08-03T16:35:15;4.20;;;3.80;;
50681;SDS011;36779;52.168;20.878;2022-08-03T16:38:08;4.60;;;4.20;;
50681;SDS011;36779;52.168;20.878;2022-08-03T16:41:05;5.50;;;4.50;;
50681;SDS011;36779;52.168;20.878;2022-08-03T16:43:54;4.60;;;4.20;;
50681;SDS011;36779;52.168;20.878;2022-08-03T16:46:43;7.10;;;4.70;;
50681;SDS011;36779;52.168;20.878;2022-08-03T16:49:32;4.90;;;4.40;;
50681;SDS011;36779;52.168;20.878;2022-08-03T16:52:41;5.20;;;4.60;;
50681;SDS011;36779;52.168;20.878;2022-08-03T16:55:34;5.10;;;4.60;;
50681;SDS011;36779;52.168;20.878;2022-08-03T16:58:40;6.80;;;4.40;;
50681;SDS011;36779;52.168;20.878;2022-08-03T17:01:31;6.60;;;4.80;;
50681;SDS011;36779;52.168;20.878;2022-08-03T17:04:24;5.70;;;4.40;;
50681;SDS011;36779;52.168;20.878;2022-08-03T17:07:16;5.00;;;4.50;;
50681;SDS011;36779;52.168;20.878;2022-08-03T17:10:08;5.20;;;4.50;;
50681;SDS011;36779;52.168;20.878;2022-08-03T17:12:59;4.90;;;4.50;;